createdAt,value
2018-06-05T00:02:21.530Z,32.20
2018-06-05T00:04:53.665Z,32.20
2018-06-05T00:07:25.563Z,32.30
2018-06-05T00:09:58.117Z,32.20
2018-06-05T00:12:29.972Z,32.10
2018-06-05T00:15:02.142Z,32.10
2018-06-05T00:17:34.102Z,32.10
2018-06-05T00:20:06.989Z,32.10
2018-06-05T00:22:38.910Z,32.10
2018-06-05T00:25:11.106Z,32.00
2018-06-05T00:27:42.927Z,32.00
2018-06-05T00:30:15.209Z,32.00
2018-06-05T00:32:46.782Z,31.90
2018-06-05T00:35:18.765Z,31.90
2018-06-05T00:37:50.355Z,31.80
2018-06-05T00:40:22.561Z,31.80
2018-06-05T00:42:54.395Z,31.70
2018-06-05T00:45:26.515Z,31.80
2018-06-05T00:47:58.625Z,31.70
2018-06-05T00:50:30.713Z,31.70
2018-06-05T00:53:02.700Z,31.70
2018-06-05T00:55:34.886Z,31.60
2018-06-05T00:58:06.764Z,31.50
2018-06-05T01:00:39.010Z,31.40
2018-06-05T01:03:10.871Z,31.40
2018-06-05T01:05:43.015Z,31.50
2018-06-05T01:08:14.940Z,31.50
2018-06-05T01:10:46.990Z,31.60
2018-06-05T01:13:19.057Z,31.50
2018-06-05T01:15:51.190Z,31.60
2018-06-05T01:18:23.189Z,31.60
2018-06-05T01:20:56.669Z,31.50
2018-06-05T01:23:28.430Z,31.40
2018-06-05T01:26:00.474Z,31.30
2018-06-05T01:28:32.313Z,31.30
2018-06-05T01:31:04.321Z,31.30
2018-06-05T01:33:36.151Z,31.30
2018-06-05T01:36:08.197Z,31.20
2018-06-05T01:38:40.102Z,31.20
2018-06-05T01:41:11.780Z,31.40
2018-06-05T01:43:43.662Z,31.40
2018-06-05T01:48:46.960Z,31.40
2018-06-05T01:51:18.809Z,31.40
2018-06-05T01:53:51.124Z,31.40
2018-06-05T01:56:24.078Z,31.40
2018-06-05T01:58:56.035Z,31.50
2018-06-05T02:01:28.185Z,31.50
2018-06-05T02:04:00.181Z,31.60
2018-06-05T02:06:32.361Z,31.60
2018-06-05T02:09:04.834Z,31.60
2018-06-05T02:11:36.944Z,31.60
2018-06-05T02:14:08.768Z,31.70
2018-06-05T02:16:40.787Z,31.70
2018-06-05T02:19:12.741Z,31.70
2018-06-05T02:21:46.857Z,31.60
2018-06-05T02:24:18.710Z,31.60
2018-06-05T02:26:50.686Z,31.60
2018-06-05T02:29:22.524Z,31.70
2018-06-05T02:31:54.808Z,31.90
2018-06-05T02:34:26.643Z,32.00
2018-06-05T02:36:58.986Z,32.10
2018-06-05T02:42:01.970Z,32.40
2018-06-05T02:44:33.805Z,32.50
2018-06-05T02:49:37.168Z,32.70
2018-06-05T02:52:09.145Z,32.80
2018-06-05T02:54:40.802Z,32.80
2018-06-05T02:57:12.939Z,33.00
2018-06-05T02:59:44.770Z,33.10
2018-06-05T03:02:17.102Z,33.20
2018-06-05T03:04:49.177Z,33.30
2018-06-05T03:07:21.118Z,33.30
2018-06-05T03:12:24.704Z,33.60
2018-06-05T03:14:56.713Z,33.60
2018-06-05T03:17:32.846Z,33.80
2018-06-05T03:20:04.817Z,33.80
2018-06-05T03:22:38.133Z,34.10
2018-06-05T03:25:10.044Z,34.10
2018-06-05T03:27:42.170Z,34.20
2018-06-05T03:30:14.039Z,34.30
2018-06-05T03:32:46.041Z,34.30
2018-06-05T03:35:17.942Z,34.40
2018-06-05T03:40:20.999Z,34.60
2018-06-05T03:42:52.995Z,34.80
2018-06-05T03:45:25.124Z,34.70
2018-06-05T03:50:28.518Z,35.20
2018-06-05T03:53:01.402Z,35.20
2018-06-05T03:55:33.382Z,35.30
2018-06-05T03:58:05.181Z,35.50
2018-06-05T04:00:36.823Z,35.50
2018-06-05T04:03:08.874Z,35.70
2018-06-05T04:05:40.742Z,35.90
2018-06-05T04:08:13.266Z,36.10
2018-06-05T04:10:45.689Z,36.20
2018-06-05T04:18:20.776Z,36.60
2018-06-05T04:20:52.685Z,36.90
2018-06-05T04:23:26.380Z,37.10
2018-06-05T04:25:58.306Z,37.30
2018-06-05T04:28:30.374Z,37.60
2018-06-05T04:31:02.342Z,37.70
2018-06-05T04:33:34.535Z,37.80
2018-06-05T04:36:06.188Z,37.80
2018-06-05T04:38:38.382Z,38.10
2018-06-05T04:41:10.097Z,38.30
2018-06-05T04:43:42.238Z,38.50
2018-06-05T04:46:14.520Z,38.90
2018-06-05T04:51:17.990Z,39.50
2018-06-05T04:53:50.119Z,39.80
2018-06-05T04:56:22.168Z,40.40
2018-06-05T05:01:25.689Z,41.20
2018-06-05T05:03:57.929Z,42.00
2018-06-05T05:06:29.734Z,42.50
2018-06-05T05:09:01.857Z,41.90
2018-06-05T05:11:33.762Z,42.00
2018-06-05T05:14:05.881Z,41.40
2018-06-05T05:16:37.935Z,41.40
2018-06-05T05:19:09.908Z,41.10
2018-06-05T05:21:41.749Z,41.60
2018-06-05T05:24:14.993Z,41.90
2018-06-05T05:26:46.933Z,42.10
2018-06-05T05:29:19.329Z,43.30
2018-06-05T05:31:51.151Z,43.10
2018-06-05T05:34:24.504Z,43.50
2018-06-05T05:36:56.578Z,43.60
2018-06-05T05:39:28.439Z,43.50
2018-06-05T05:42:00.323Z,44.00
2018-06-05T05:44:32.318Z,43.70
2018-06-05T05:47:04.875Z,43.90
2018-06-05T05:54:39.142Z,43.20
2018-06-05T05:57:11.906Z,43.10
2018-06-05T05:59:43.954Z,43.30
2018-06-05T06:02:15.665Z,43.30
2018-06-05T06:04:48.293Z,43.30
2018-06-05T06:07:20.289Z,42.80
2018-06-05T06:09:54.525Z,43.60
2018-06-05T06:12:26.162Z,44.30
2018-06-05T06:14:58.118Z,45.00
2018-06-05T06:20:01.538Z,45.40
2018-06-05T06:22:33.485Z,45.50
2018-06-05T06:25:05.614Z,45.70
2018-06-05T06:27:37.494Z,46.00
2018-06-05T06:30:09.622Z,45.40
2018-06-05T06:32:41.670Z,45.30
2018-06-05T06:35:14.135Z,44.70
2018-06-05T06:37:46.098Z,44.40
2018-06-05T06:40:18.444Z,44.20
2018-06-05T06:42:50.385Z,44.40
2018-06-05T06:45:22.704Z,44.20
2018-06-05T06:47:54.650Z,44.10
2018-06-05T06:52:57.594Z,43.60
2018-06-05T06:58:01.870Z,44.30
2018-06-05T07:00:33.681Z,44.40
2018-06-05T07:03:05.601Z,44.00
2018-06-05T07:05:37.534Z,44.20
2018-06-05T07:08:09.400Z,44.60
2018-06-05T07:10:41.577Z,44.70
2018-06-05T07:13:13.343Z,45.10
2018-06-05T07:15:45.659Z,45.80
2018-06-05T07:18:18.593Z,46.00
2018-06-05T07:20:50.845Z,46.30
2018-06-05T07:25:54.196Z,47.10
2018-06-05T07:28:26.221Z,47.30
2018-06-05T07:30:58.387Z,47.30
2018-06-05T07:33:30.229Z,47.20
2018-06-05T07:36:02.569Z,47.10
2018-06-05T07:38:34.535Z,47.10
2018-06-05T07:41:07.036Z,46.50
2018-06-05T07:46:10.634Z,45.50
2018-06-05T07:48:42.587Z,45.00
2018-06-05T07:51:14.938Z,44.60
2018-06-05T07:53:46.993Z,44.10
2018-06-05T07:56:19.369Z,43.90
2018-06-05T07:58:52.258Z,43.80
2018-06-05T08:01:24.279Z,43.80
2018-06-05T08:03:56.056Z,43.70
2018-06-05T08:06:28.675Z,43.80
2018-06-05T08:09:00.799Z,43.90
2018-06-05T08:11:33.072Z,43.80
2018-06-05T08:14:05.037Z,43.80
2018-06-05T08:16:37.191Z,43.80
2018-06-05T08:19:09.077Z,43.80
2018-06-05T08:21:41.350Z,43.80
2018-06-05T08:24:13.502Z,44.00
2018-06-05T08:26:55.830Z,44.00
2018-06-05T08:29:27.620Z,44.10
2018-06-05T08:31:59.670Z,44.20
2018-06-05T08:34:31.100Z,44.10
2018-06-05T08:37:03.667Z,44.10
2018-06-05T08:39:35.386Z,44.10
2018-06-05T08:42:07.500Z,44.10
2018-06-05T08:44:39.656Z,44.00
2018-06-05T08:47:11.954Z,44.00
2018-06-05T08:49:43.978Z,43.90
2018-06-05T08:52:16.393Z,44.20
2018-06-05T08:54:48.200Z,44.10
2018-06-05T08:57:20.442Z,44.20
2018-06-05T08:59:53.205Z,44.10
2018-06-05T09:02:25.177Z,44.10
2018-06-05T09:04:56.985Z,44.00
2018-06-05T09:07:28.860Z,43.80
2018-06-05T09:10:00.789Z,43.80
2018-06-05T09:12:32.545Z,43.80
2018-06-05T09:15:04.185Z,43.80
2018-06-05T09:17:35.910Z,43.70
2018-06-05T09:22:38.374Z,43.60
2018-06-05T09:25:10.067Z,43.50
2018-06-05T09:27:41.972Z,43.40
2018-06-05T09:30:13.428Z,43.40
2018-06-05T09:32:45.202Z,43.40
2018-06-05T09:37:47.658Z,43.40
2018-06-05T09:40:19.494Z,43.20
2018-06-05T09:42:51.120Z,43.20
2018-06-05T09:45:22.762Z,43.10
2018-06-05T09:47:54.665Z,42.90
2018-06-05T09:50:26.334Z,42.80
2018-06-05T09:52:57.826Z,42.80
2018-06-05T09:55:29.284Z,42.70
2018-06-05T09:58:01.257Z,42.60
2018-06-05T10:00:39.047Z,42.60
2018-06-05T10:03:11.006Z,42.60
2018-06-05T10:05:42.561Z,42.60
2018-06-05T10:08:14.460Z,42.40
2018-06-05T10:10:46.076Z,42.30
2018-06-05T10:13:18.044Z,42.30
2018-06-05T10:15:49.899Z,42.10
2018-06-05T10:18:21.652Z,42.00
2018-06-05T10:20:53.314Z,42.20
2018-06-05T10:23:25.179Z,42.40
2018-06-05T10:25:56.883Z,42.50
2018-06-05T10:28:28.622Z,42.40
2018-06-05T10:31:00.140Z,42.20
2018-06-05T10:33:32.034Z,42.10
2018-06-05T10:36:04.134Z,42.20
2018-06-05T10:38:36.344Z,42.00
2018-06-05T10:41:07.984Z,42.20
2018-06-05T10:43:39.564Z,42.10
2018-06-05T10:46:11.124Z,42.00
2018-06-05T10:48:43.076Z,41.90
2018-06-05T10:51:15.078Z,41.90
2018-06-05T10:56:18.608Z,42.10
2018-06-05T10:58:50.995Z,41.90
2018-06-05T11:01:24.024Z,41.90
2018-06-05T11:03:56.131Z,42.00
2018-06-05T11:06:27.844Z,41.90
2018-06-05T11:08:59.692Z,41.90
2018-06-05T11:11:31.096Z,42.00
2018-06-05T11:14:03.027Z,41.90
2018-06-05T11:16:34.602Z,41.90
2018-06-05T11:19:06.438Z,41.80
2018-06-05T11:21:37.950Z,41.60
2018-06-05T11:26:44.955Z,41.80
2018-06-05T11:29:17.110Z,41.60
2018-06-05T11:31:48.718Z,41.40
2018-06-05T11:34:20.804Z,41.20
2018-06-05T11:36:52.652Z,41.10
2018-06-05T11:39:24.603Z,41.00
2018-06-05T11:41:56.094Z,41.00
2018-06-05T11:44:27.907Z,41.00
2018-06-05T11:46:59.867Z,40.80
2018-06-05T11:49:32.138Z,40.90
2018-06-05T11:52:03.580Z,40.80
2018-06-05T11:54:34.913Z,40.80
2018-06-05T11:59:37.360Z,40.40
2018-06-05T12:02:09.904Z,40.30
2018-06-05T12:04:41.702Z,40.20
2018-06-05T12:07:13.448Z,40.10
2018-06-05T12:09:45.634Z,40.20
2018-06-05T12:12:17.420Z,40.00
2018-06-05T12:14:49.231Z,39.90
2018-06-05T12:17:20.623Z,39.70
2018-06-05T12:22:23.139Z,39.50
2018-06-05T12:24:54.895Z,39.50
2018-06-05T12:29:58.049Z,39.50
2018-06-05T12:32:29.816Z,39.40
2018-06-05T12:35:01.751Z,39.30
2018-06-05T12:42:35.196Z,39.20
2018-06-05T12:45:07.322Z,39.10
2018-06-05T12:47:39.125Z,39.10
2018-06-05T12:50:11.158Z,39.10
2018-06-05T12:52:42.557Z,39.10
2018-06-05T12:55:14.363Z,39.10
2018-06-05T12:57:45.937Z,39.00
2018-06-05T13:00:17.784Z,39.00
2018-06-05T13:02:50.949Z,39.00
2018-06-05T13:05:22.990Z,38.90
2018-06-05T13:07:54.558Z,38.80
2018-06-05T13:10:26.571Z,38.90
2018-06-05T13:12:58.007Z,38.70
2018-06-05T13:15:29.670Z,38.70
2018-06-05T13:18:01.331Z,38.60
2018-06-05T13:20:33.269Z,38.50
2018-06-05T13:23:04.735Z,38.50
2018-06-05T13:25:36.424Z,38.40
2018-06-05T13:28:08.349Z,38.40
2018-06-05T13:30:40.256Z,38.30
2018-06-05T13:33:11.946Z,38.30
2018-06-05T13:35:44.257Z,38.30
2018-06-05T13:38:16.038Z,38.20
2018-06-05T13:40:47.811Z,38.20
2018-06-05T13:43:19.543Z,38.20
2018-06-05T13:45:51.338Z,38.20
2018-06-05T13:48:22.887Z,38.10
2018-06-05T13:50:55.082Z,38.10
2018-06-05T13:53:26.802Z,38.10
2018-06-05T13:55:58.908Z,37.90
2018-06-05T13:58:30.817Z,37.80
2018-06-05T14:01:03.942Z,37.80
2018-06-05T14:03:36.746Z,37.70
2018-06-05T14:06:08.690Z,37.70
2018-06-05T14:08:40.558Z,37.50
2018-06-05T14:11:12.325Z,37.50
2018-06-05T14:13:44.224Z,37.50
2018-06-05T14:16:16.205Z,37.50
2018-06-05T14:18:47.669Z,37.50
2018-06-05T14:21:19.799Z,37.50
2018-06-05T14:23:51.488Z,37.40
2018-06-05T14:28:54.725Z,37.30
2018-06-05T14:31:26.806Z,37.40
2018-06-05T14:33:58.746Z,37.30
2018-06-05T14:36:30.525Z,37.20
2018-06-05T14:39:02.037Z,37.20
2018-06-05T14:41:33.954Z,37.20
2018-06-05T14:44:05.611Z,37.00
2018-06-05T14:46:37.841Z,37.00
2018-06-05T14:49:09.253Z,37.10
2018-06-05T14:51:41.055Z,37.10
2018-06-05T14:56:43.636Z,36.90
2018-06-05T15:01:46.714Z,36.80
2018-06-05T15:04:19.311Z,36.70
2018-06-05T15:09:23.670Z,36.70
2018-06-05T15:14:26.652Z,36.70
2018-06-05T15:16:58.372Z,36.70
2018-06-05T15:19:30.165Z,36.70
2018-06-05T15:22:01.859Z,36.60
2018-06-05T15:24:32.882Z,36.50
2018-06-05T15:27:04.537Z,36.60
2018-06-05T15:32:07.098Z,36.60
2018-06-05T15:34:38.654Z,36.60
2018-06-05T15:37:10.612Z,36.50
2018-06-05T15:39:42.407Z,36.50
2018-06-05T15:42:13.967Z,36.40
2018-06-05T15:44:45.508Z,36.50
2018-06-05T15:49:47.908Z,36.40
2018-06-05T15:52:19.608Z,36.40
2018-06-05T15:54:51.624Z,36.40
2018-06-05T15:59:54.574Z,36.30
2018-06-05T16:02:26.328Z,36.30
2018-06-05T16:04:59.320Z,36.30
2018-06-05T16:07:31.178Z,36.30
2018-06-05T16:10:02.599Z,36.30
2018-06-05T16:12:35.066Z,36.20
2018-06-05T16:15:06.726Z,36.20
2018-06-05T16:20:09.461Z,36.20
2018-06-05T16:22:41.352Z,36.20
2018-06-05T16:25:12.907Z,36.10
2018-06-05T16:27:44.988Z,36.20
2018-06-05T16:30:16.797Z,36.20
2018-06-05T16:32:48.380Z,36.20
2018-06-05T16:35:19.863Z,36.10
2018-06-05T16:37:51.647Z,36.10
2018-06-05T16:42:43.422Z,36.10
2018-06-05T16:45:15.140Z,36.00
2018-06-05T16:47:46.695Z,36.00
2018-06-05T16:50:18.679Z,36.00
2018-06-05T16:55:20.359Z,36.00
2018-06-05T16:57:51.447Z,36.00
2018-06-05T17:00:22.906Z,36.00
2018-06-05T17:02:54.261Z,36.00
2018-06-05T17:05:27.007Z,36.00
2018-06-05T17:07:58.450Z,36.00
2018-06-05T17:10:30.271Z,36.00
2018-06-05T17:13:01.909Z,36.00
2018-06-05T17:15:33.634Z,36.00
2018-06-05T17:18:05.235Z,36.00
2018-06-05T17:20:37.330Z,36.00
2018-06-05T17:23:08.897Z,35.90
2018-06-05T17:25:40.713Z,36.00
2018-06-05T17:28:12.790Z,36.00
2018-06-05T17:30:44.659Z,36.00
2018-06-05T17:33:16.184Z,36.00
2018-06-05T17:35:48.194Z,35.90
2018-06-05T17:38:19.948Z,35.90
2018-06-05T17:40:51.769Z,35.90
2018-06-05T17:43:23.224Z,36.00
2018-06-05T17:45:55.082Z,36.10
2018-06-05T17:48:26.780Z,36.10
2018-06-05T17:53:29.576Z,36.20
2018-06-05T17:56:01.309Z,36.10
2018-06-05T17:58:32.858Z,36.10
2018-06-05T18:01:04.676Z,36.10
2018-06-05T18:03:36.088Z,36.00
2018-06-05T18:08:39.593Z,36.10
2018-06-05T18:11:11.466Z,36.10
2018-06-05T18:13:42.919Z,36.10
2018-06-05T18:18:45.514Z,36.00
2018-06-05T18:21:17.947Z,35.90
2018-06-05T18:23:49.679Z,35.90
2018-06-05T18:26:21.705Z,35.90
2018-06-05T18:28:53.300Z,35.80
2018-06-05T18:31:24.929Z,35.80
2018-06-05T18:33:56.471Z,35.80
2018-06-05T18:36:28.378Z,35.70
2018-06-05T18:39:00.102Z,35.70
2018-06-05T18:41:31.834Z,35.70
2018-06-05T18:44:03.460Z,35.60
2018-06-05T18:46:35.136Z,35.70
2018-06-05T18:49:06.757Z,35.70
2018-06-05T18:54:09.807Z,35.60
2018-06-05T18:56:41.951Z,35.50
2018-06-05T18:59:13.446Z,35.40
2018-06-05T19:01:45.949Z,35.40
2018-06-05T19:04:17.480Z,35.40
2018-06-05T19:07:00.476Z,35.40
2018-06-05T19:09:32.878Z,35.40
2018-06-05T19:12:04.624Z,35.40
2018-06-05T19:14:36.293Z,35.40
2018-06-05T19:17:08.209Z,35.30
2018-06-05T19:19:40.040Z,35.40
2018-06-05T19:22:11.901Z,35.40
2018-06-05T19:24:43.410Z,35.30
2018-06-05T19:27:15.274Z,35.30
2018-06-05T19:29:47.023Z,35.30
2018-06-05T19:32:19.041Z,35.30
2018-06-05T19:34:50.392Z,35.40
2018-06-05T19:39:52.905Z,35.30
2018-06-05T19:44:55.447Z,35.20
2018-06-05T19:47:27.586Z,35.10
2018-06-05T19:49:59.252Z,35.00
2018-06-05T19:52:31.131Z,35.00
2018-06-05T19:55:02.792Z,35.10
2018-06-05T19:57:34.466Z,35.10
2018-06-05T20:00:06.904Z,35.10
2018-06-05T20:02:38.716Z,35.20
2018-06-05T20:05:10.344Z,35.20
2018-06-05T20:07:42.769Z,35.10
2018-06-05T20:10:14.389Z,35.10
2018-06-05T20:12:46.127Z,35.10
2018-06-05T20:15:17.613Z,35.10
2018-06-05T20:17:49.390Z,35.00
2018-06-05T20:20:20.910Z,34.90
2018-06-05T20:22:53.361Z,34.90
2018-06-05T20:25:24.913Z,34.80
2018-06-05T20:27:56.566Z,34.90
2018-06-05T20:30:28.069Z,35.00
2018-06-05T20:33:00.132Z,35.00
2018-06-05T20:35:31.650Z,35.00
2018-06-05T20:38:04.043Z,34.90
2018-06-05T20:40:35.497Z,34.80
2018-06-05T20:43:07.843Z,34.80
2018-06-05T20:45:39.245Z,34.70
2018-06-05T20:48:11.122Z,34.70
2018-06-05T20:50:42.731Z,34.80
2018-06-05T20:53:14.462Z,34.70
2018-06-05T20:55:46.154Z,34.70
2018-06-05T20:58:18.207Z,34.70
2018-06-05T21:00:49.979Z,34.70
2018-06-05T21:03:21.518Z,34.70
2018-06-05T21:05:53.286Z,34.70
2018-06-05T21:08:26.128Z,34.70
2018-06-05T21:10:57.560Z,34.70
2018-06-05T21:13:29.508Z,34.70
2018-06-05T21:16:01.074Z,34.70
2018-06-05T21:18:33.542Z,34.50
2018-06-05T21:21:05.200Z,34.60
2018-06-05T21:23:37.062Z,34.60
2018-06-05T21:26:08.610Z,34.70
2018-06-05T21:28:40.598Z,34.70
2018-06-05T21:33:43.170Z,34.50
2018-06-05T21:36:14.956Z,34.50
2018-06-05T21:38:47.209Z,34.60
2018-06-05T21:41:18.897Z,34.60
2018-06-05T21:43:50.549Z,34.50
2018-06-05T21:46:22.033Z,34.50
2018-06-05T21:48:53.930Z,34.50
2018-06-05T21:51:25.591Z,34.50
2018-06-05T21:53:57.370Z,34.50
2018-06-05T21:56:29.832Z,34.50
2018-06-05T21:59:01.905Z,34.50
2018-06-05T22:01:33.617Z,34.50
2018-06-05T22:04:05.639Z,34.50
2018-06-05T22:06:37.436Z,34.40
2018-06-05T22:09:10.775Z,34.50
2018-06-05T22:11:42.437Z,34.30
2018-06-05T22:14:14.136Z,34.40
2018-06-05T22:16:45.969Z,34.40
2018-06-05T22:19:17.528Z,34.50
2018-06-05T22:24:19.955Z,34.40
2018-06-05T22:26:51.590Z,34.40
2018-06-05T22:29:23.295Z,34.50
2018-06-05T22:31:54.723Z,34.50
2018-06-05T22:34:26.706Z,34.40
2018-06-05T22:36:58.184Z,34.30
2018-06-05T22:39:30.690Z,34.30
2018-06-05T22:42:02.526Z,34.20
2018-06-05T22:44:34.579Z,34.20
2018-06-05T22:47:06.311Z,34.20
2018-06-05T22:49:38.620Z,34.20
2018-06-05T22:52:10.278Z,34.20
2018-06-05T22:54:42.068Z,34.10
2018-06-05T22:57:13.493Z,34.00
2018-06-05T22:59:45.096Z,33.90
2018-06-05T23:02:16.660Z,33.90
2018-06-05T23:04:48.651Z,34.00
2018-06-05T23:07:20.315Z,34.00
2018-06-05T23:09:54.174Z,33.90
2018-06-05T23:12:25.658Z,33.80
2018-06-05T23:14:57.638Z,33.80
2018-06-05T23:17:29.170Z,33.80
2018-06-05T23:20:00.895Z,33.80
2018-06-05T23:22:32.513Z,33.80
2018-06-05T23:25:04.887Z,33.70
2018-06-05T23:27:36.562Z,33.70
2018-06-05T23:30:08.621Z,33.70
2018-06-05T23:32:40.053Z,33.70
2018-06-05T23:35:11.836Z,33.80
2018-06-05T23:37:43.287Z,33.60
2018-06-05T23:40:14.943Z,33.60
2018-06-05T23:42:46.495Z,33.60
2018-06-05T23:45:18.309Z,33.70
2018-06-05T23:47:49.680Z,33.70
2018-06-05T23:50:21.504Z,33.70
2018-06-05T23:52:53.019Z,33.70
2018-06-05T23:55:24.675Z,33.60
2018-06-05T23:57:56.202Z,33.60
